Back to Top

Language: 

My Weather Underground Personal Weather Station Historical Data with Graphs...

Delerius Weather Station Historical Data
Daily Summary for June 20, 2017 Units:  English    Metric   Both
« Previous Day
Next Day »
Daily Weekly Monthly Yearly Custom
  High: Low: Average:
Temperature: 70.5 °F 59.0 °F 63.8 °F
Dew Point: 61.1 °F 55.8 °F 58.3 °F
Humidity: 90 % 72 % 83 %
Wind Speed: 7.0 mph 1.0 mph 4.4 mph
Wind Gust: 14.0 mph - -
Wind:- - ESE
Pressure: 30.14 in 30.06 in -
Precipitation: 0.00 in    
Historical Graphs
 
 
Tabular Data for June 20, 2017
Time Temperature Dew Point Pressure Wind Wind Speed Wind Gust Humidity Rainfall Rate (Hourly) solar Conditions
00:04 69.8 °F 60.4 °F 30.06 in NW 2.0 mph 6.0 mph 72 % 0.00 in 0 W/m2
00:09 70.0 °F 60.5 °F 30.06 in NW 2.0 mph 7.0 mph 72 % 0.00 in 0 W/m2
00:14 70.2 °F 60.7 °F 30.06 in NW 4.0 mph 8.0 mph 72 % 0.00 in 0 W/m2
00:19 70.3 °F 60.9 °F 30.07 in NW 5.0 mph 9.0 mph 72 % 0.00 in 0 W/m2
00:25 70.5 °F 61.1 °F 30.07 in NNW 5.0 mph 11.0 mph 72 % 0.00 in 0 W/m2
00:30 70.5 °F 61.1 °F 30.07 in NNW 6.0 mph 14.0 mph 72 % 0.00 in 0 W/m2
00:35 70.5 °F 61.1 °F 30.07 in North 6.0 mph 14.0 mph 72 % 0.00 in 0 W/m2
00:40 70.2 °F 60.7 °F 30.07 in North 6.0 mph 13.0 mph 72 % 0.00 in 0 W/m2
00:45 69.8 °F 60.8 °F 30.07 in North 7.0 mph 13.0 mph 73 % 0.00 in 0 W/m2
00:50 69.3 °F 60.2 °F 30.07 in North 7.0 mph 12.0 mph 73 % 0.00 in 0 W/m2
00:55 68.7 °F 59.7 °F 30.08 in NNE 7.0 mph 13.0 mph 73 % 0.00 in 0 W/m2
01:00 68.4 °F 59.4 °F 30.08 in North 6.0 mph 13.0 mph 73 % 0.00 in 0 W/m2
01:05 68.2 °F 59.2 °F 30.08 in North 7.0 mph 12.0 mph 73 % 0.00 in 0 W/m2
01:10 67.8 °F 59.2 °F 30.08 in NNW 7.0 mph 12.0 mph 74 % 0.00 in 0 W/m2
01:16 67.6 °F 59.1 °F 30.08 in NNW 6.0 mph 12.0 mph 74 % 0.00 in 0 W/m2
01:21 67.5 °F 58.9 °F 30.08 in NNW 4.0 mph 12.0 mph 74 % 0.00 in 0 W/m2
01:26 67.3 °F 58.7 °F 30.08 in NNW 3.0 mph 9.0 mph 74 % 0.00 in 0 W/m2
01:31 67.3 °F 59.1 °F 30.08 in NW 3.0 mph 9.0 mph 75 % 0.00 in 0 W/m2
01:36 66.9 °F 58.7 °F 30.08 in NW 2.0 mph 8.0 mph 75 % 0.00 in 0 W/m2
01:41 66.7 °F 58.6 °F 30.08 in NW 2.0 mph 8.0 mph 75 % 0.00 in 0 W/m2
01:46 66.6 °F 58.4 °F 30.08 in NW 3.0 mph 8.0 mph 75 % 0.00 in 0 W/m2
01:51 66.4 °F 58.2 °F 30.08 in NW 3.0 mph 8.0 mph 75 % 0.00 in 0 W/m2
01:56 66.0 °F 58.2 °F 30.08 in NW 2.0 mph 9.0 mph 76 % 0.00 in 0 W/m2
02:01 65.8 °F 58.1 °F 30.08 in NNW 3.0 mph 10.0 mph 76 % 0.00 in 0 W/m2
02:06 65.7 °F 58.3 °F 30.08 in NW 4.0 mph 10.0 mph 77 % 0.00 in 0 W/m2
02:11 65.5 °F 58.1 °F 30.08 in NW 3.0 mph 9.0 mph 77 % 0.00 in 0 W/m2
02:16 65.5 °F 58.1 °F 30.08 in NW 2.0 mph 7.0 mph 77 % 0.00 in 0 W/m2
02:21 65.1 °F 57.7 °F 30.08 in NW 3.0 mph 8.0 mph 77 % 0.00 in 0 W/m2
02:26 64.9 °F 57.9 °F 30.09 in NW 3.0 mph 8.0 mph 78 % 0.00 in 0 W/m2
02:31 64.9 °F 57.9 °F 30.08 in NW 3.0 mph 8.0 mph 78 % 0.00 in 0 W/m2
02:36 64.9 °F 57.9 °F 30.08 in NW 4.0 mph 8.0 mph 78 % 0.00 in 0 W/m2
02:41 64.8 °F 57.7 °F 30.09 in NW 4.0 mph 8.0 mph 78 % 0.00 in 0 W/m2
02:46 64.8 °F 57.7 °F 30.09 in NW 4.0 mph 8.0 mph 78 % 0.00 in 0 W/m2
02:51 64.6 °F 57.6 °F 30.09 in NW 3.0 mph 8.0 mph 78 % 0.00 in 0 W/m2
02:56 64.6 °F 57.9 °F 30.09 in NNW 3.0 mph 8.0 mph 79 % 0.00 in 0 W/m2
03:01 64.6 °F 57.9 °F 30.09 in North 3.0 mph 7.0 mph 79 % 0.00 in 0 W/m2
03:11 64.2 °F 57.6 °F 30.09 in North 3.0 mph 8.0 mph 79 % 0.00 in 0 W/m2
03:16 64.0 °F 57.4 °F 30.09 in North 4.0 mph 11.0 mph 79 % 0.00 in 0 W/m2
03:21 63.9 °F 57.6 °F 30.09 in North 6.0 mph 11.0 mph 80 % 0.00 in 0 W/m2
03:26 63.5 °F 57.2 °F 30.09 in North 5.0 mph 10.0 mph 80 % 0.00 in 0 W/m2
03:31 63.1 °F 57.2 °F 30.09 in North 5.0 mph 11.0 mph 81 % 0.00 in 0 W/m2
03:36 63.0 °F 57.0 °F 30.09 in North 6.0 mph 13.0 mph 81 % 0.00 in 0 W/m2
03:41 62.8 °F 57.2 °F 30.09 in North 6.0 mph 13.0 mph 82 % 0.00 in 0 W/m2
03:46 62.6 °F 57.4 °F 30.09 in North 6.0 mph 10.0 mph 83 % 0.00 in 0 W/m2
03:51 62.4 °F 57.2 °F 30.09 in North 5.0 mph 9.0 mph 83 % 0.00 in 0 W/m2
03:56 62.2 °F 57.3 °F 30.09 in North 6.0 mph 11.0 mph 84 % 0.00 in 0 W/m2
04:01 62.2 °F 57.3 °F 30.09 in North 7.0 mph 11.0 mph 84 % 0.00 in 0 W/m2
04:06 62.1 °F 57.2 °F 30.09 in North 6.0 mph 11.0 mph 84 % 0.00 in 0 W/m2
04:11 62.1 °F 57.5 °F 30.09 in North 6.0 mph 11.0 mph 85 % 0.00 in 0 W/m2
04:16 61.9 °F 57.3 °F 30.09 in North 6.0 mph 11.0 mph 85 % 0.00 in 0 W/m2
04:21 61.9 °F 57.6 °F 30.09 in NNW 7.0 mph 14.0 mph 86 % 0.00 in 0 W/m2
04:26 61.7 °F 57.5 °F 30.09 in North 7.0 mph 14.0 mph 86 % 0.00 in 0 W/m2
04:31 61.7 °F 57.5 °F 30.09 in North 5.0 mph 10.0 mph 86 % 0.00 in 0 W/m2
04:36 61.5 °F 57.6 °F 30.09 in North 6.0 mph 12.0 mph 87 % 0.00 in 0 W/m2
04:41 61.3 °F 57.4 °F 30.09 in North 7.0 mph 12.0 mph 87 % 0.00 in 0 W/m2
04:47 61.2 °F 57.3 °F 30.09 in NNE 7.0 mph 13.0 mph 87 % 0.00 in 5 W/m2
04:51 61.2 °F 57.6 °F 30.10 in North 7.0 mph 13.0 mph 88 % 0.00 in 5 W/m2
04:57 61.2 °F 57.6 °F 30.10 in North 7.0 mph 12.0 mph 88 % 0.00 in 7 W/m2
05:02 61.0 °F 57.4 °F 30.10 in North 7.0 mph 12.0 mph 88 % 0.00 in 7 W/m2
05:07 61.0 °F 57.7 °F 30.10 in North 6.0 mph 12.0 mph 89 % 0.00 in 9 W/m2
05:12 61.0 °F 57.7 °F 30.10 in North 5.0 mph 12.0 mph 89 % 0.00 in 11 W/m2
05:17 61.0 °F 57.7 °F 30.10 in North 4.0 mph 8.0 mph 89 % 0.00 in 12 W/m2
05:22 61.0 °F 57.7 °F 30.10 in North 4.0 mph 10.0 mph 89 % 0.00 in 12 W/m2
05:27 61.2 °F 57.9 °F 30.10 in North 3.0 mph 10.0 mph 89 % 0.00 in 14 W/m2
05:32 61.2 °F 57.9 °F 30.10 in North 3.0 mph 8.0 mph 89 % 0.00 in 16 W/m2
05:37 61.2 °F 57.9 °F 30.10 in North 4.0 mph 8.0 mph 89 % 0.00 in 25 W/m2
05:42 61.2 °F 57.9 °F 30.10 in North 4.0 mph 10.0 mph 89 % 0.00 in 21 W/m2
05:47 61.2 °F 57.9 °F 30.10 in North 5.0 mph 10.0 mph 89 % 0.00 in 25 W/m2
05:52 61.2 °F 57.9 °F 30.10 in North 5.0 mph 9.0 mph 89 % 0.00 in 25 W/m2
05:57 61.2 °F 57.9 °F 30.10 in North 5.0 mph 9.0 mph 89 % 0.00 in 25 W/m2
06:02 61.2 °F 57.9 °F 30.10 in North 5.0 mph 9.0 mph 89 % 0.00 in 23 W/m2
06:07 61.2 °F 57.9 °F 30.10 in North 4.0 mph 7.0 mph 89 % 0.00 in 26 W/m2
06:08 61.2 °F 57.9 °F 30.10 in North 4.0 mph 7.0 mph 89 % 0.00 in 26 W/m2
06:13 61.2 °F 57.9 °F 30.10 in North 3.0 mph 7.0 mph 89 % 0.00 in 28 W/m2
06:18 61.3 °F 58.1 °F 30.10 in North 5.0 mph 10.0 mph 89 % 0.00 in 35 W/m2
06:23 61.3 °F 58.1 °F 30.10 in North 5.0 mph 10.0 mph 89 % 0.00 in 37 W/m2
06:29 61.3 °F 58.1 °F 30.11 in North 3.0 mph 8.0 mph 89 % 0.00 in 40 W/m2
06:34 61.3 °F 58.1 °F 30.11 in North 3.0 mph 10.0 mph 89 % 0.00 in 51 W/m2
06:39 61.3 °F 58.1 °F 30.11 in North 5.0 mph 10.0 mph 89 % 0.00 in 62 W/m2
06:44 61.3 °F 58.1 °F 30.11 in NNE 4.0 mph 8.0 mph 89 % 0.00 in 60 W/m2
06:49 61.5 °F 58.2 °F 30.11 in NNE 4.0 mph 9.0 mph 89 % 0.00 in 70 W/m2
06:54 61.5 °F 57.9 °F 30.11 in NNE 4.0 mph 10.0 mph 88 % 0.00 in 74 W/m2
06:59 61.5 °F 57.9 °F 30.10 in NNE 4.0 mph 10.0 mph 88 % 0.00 in 74 W/m2
07:04 61.7 °F 58.1 °F 30.11 in NNE 3.0 mph 7.0 mph 88 % 0.00 in 81 W/m2
07:09 61.7 °F 58.1 °F 30.11 in NE 2.0 mph 8.0 mph 88 % 0.00 in 56 W/m2
07:14 61.9 °F 58.3 °F 30.11 in NE 2.0 mph 8.0 mph 88 % 0.00 in 67 W/m2
07:19 61.9 °F 58.3 °F 30.11 in NNE 1.0 mph 6.0 mph 88 % 0.00 in 77 W/m2
07:24 62.1 °F 58.5 °F 30.11 in NE 1.0 mph 6.0 mph 88 % 0.00 in 70 W/m2
07:29 62.1 °F 58.1 °F 30.11 in NE 3.0 mph 8.0 mph 87 % 0.00 in 74 W/m2
07:34 62.1 °F 58.1 °F 30.11 in NE 3.0 mph 8.0 mph 87 % 0.00 in 90 W/m2
07:39 62.2 °F 58.3 °F 30.11 in NE 2.0 mph 6.0 mph 87 % 0.00 in 65 W/m2
07:44 62.2 °F 58.3 °F 30.11 in NE 3.0 mph 8.0 mph 87 % 0.00 in 74 W/m2
07:49 62.2 °F 58.3 °F 30.11 in NE 4.0 mph 9.0 mph 87 % 0.00 in 79 W/m2
07:54 62.2 °F 58.3 °F 30.12 in NNE 4.0 mph 9.0 mph 87 % 0.00 in 120 W/m2
07:59 62.2 °F 58.0 °F 30.12 in NE 3.0 mph 9.0 mph 86 % 0.00 in 88 W/m2
08:04 62.4 °F 58.2 °F 30.12 in ENE 4.0 mph 9.0 mph 86 % 0.00 in 132 W/m2
08:09 62.6 °F 58.4 °F 30.12 in ENE 4.0 mph 8.0 mph 86 % 0.00 in 91 W/m2
08:14 62.8 °F 58.5 °F 30.12 in ENE 3.0 mph 8.0 mph 86 % 0.00 in 128 W/m2
08:19 62.8 °F 58.2 °F 30.12 in ENE 4.0 mph 8.0 mph 85 % 0.00 in 104 W/m2
08:24 62.8 °F 58.2 °F 30.12 in ENE 5.0 mph 9.0 mph 85 % 0.00 in 113 W/m2
08:29 62.8 °F 58.2 °F 30.12 in ENE 4.0 mph 9.0 mph 85 % 0.00 in 114 W/m2
08:35 62.8 °F 58.2 °F 30.12 in ENE 3.0 mph 7.0 mph 85 % 0.00 in 135 W/m2
08:40 63.0 °F 58.0 °F 30.12 in ENE 4.0 mph 8.0 mph 84 % 0.00 in 155 W/m2
08:45 63.1 °F 58.6 °F 30.12 in NE 4.0 mph 8.0 mph 85 % 0.00 in 132 W/m2
08:50 63.1 °F 58.2 °F 30.12 in NE 4.0 mph 10.0 mph 84 % 0.00 in 195 W/m2
08:55 63.3 °F 58.4 °F 30.12 in ENE 4.0 mph 10.0 mph 84 % 0.00 in 155 W/m2
09:00 63.5 °F 58.6 °F 30.12 in NE 4.0 mph 8.0 mph 84 % 0.00 in 127 W/m2
09:05 63.7 °F 58.8 °F 30.12 in NE 4.0 mph 10.0 mph 84 % 0.00 in 199 W/m2
09:10 63.7 °F 58.8 °F 30.12 in NE 4.0 mph 10.0 mph 84 % 0.00 in 185 W/m2
09:15 63.9 °F 58.9 °F 30.12 in NE 4.0 mph 9.0 mph 84 % 0.00 in 218 W/m2
09:20 64.0 °F 58.8 °F 30.13 in NE 4.0 mph 9.0 mph 83 % 0.00 in 197 W/m2
09:25 64.2 °F 58.6 °F 30.13 in NE 4.0 mph 10.0 mph 82 % 0.00 in 218 W/m2
09:30 64.2 °F 58.6 °F 30.13 in ENE 5.0 mph 10.0 mph 82 % 0.00 in 169 W/m2
09:35 64.2 °F 58.6 °F 30.13 in ENE 4.0 mph 10.0 mph 82 % 0.00 in 192 W/m2
09:40 64.2 °F 58.6 °F 30.13 in NE 4.0 mph 9.0 mph 82 % 0.00 in 146 W/m2
09:45 64.2 °F 58.6 °F 30.13 in NE 4.0 mph 9.0 mph 82 % 0.00 in 162 W/m2
09:50 64.2 °F 58.6 °F 30.13 in ENE 4.0 mph 8.0 mph 82 % 0.00 in 139 W/m2
09:53 64.4 °F 58.8 °F 30.13 in ENE 5.0 mph 10.0 mph 82 % 0.00 in 125 W/m2
09:58 64.4 °F 58.8 °F 30.13 in NE 5.0 mph 10.0 mph 82 % 0.00 in 148 W/m2
10:03 64.2 °F 58.6 °F 30.13 in NE 5.0 mph 9.0 mph 82 % 0.00 in 251 W/m2
10:08 64.4 °F 58.4 °F 30.13 in ENE 5.0 mph 9.0 mph 81 % 0.00 in 171 W/m2
10:13 64.6 °F 58.6 °F 30.13 in East 5.0 mph 9.0 mph 81 % 0.00 in 172 W/m2
10:18 64.6 °F 58.6 °F 30.13 in East 4.0 mph 9.0 mph 81 % 0.00 in 234 W/m2
10:23 64.8 °F 58.8 °F 30.13 in East 4.0 mph 10.0 mph 81 % 0.00 in 151 W/m2
10:28 64.9 °F 58.6 °F 30.13 in East 5.0 mph 10.0 mph 80 % 0.00 in 185 W/m2
10:33 64.9 °F 58.6 °F 30.13 in East 4.0 mph 7.0 mph 80 % 0.00 in 169 W/m2
10:38 64.9 °F 58.6 °F 30.14 in East 4.0 mph 7.0 mph 80 % 0.00 in 193 W/m2
10:43 64.8 °F 58.8 °F 30.14 in East 4.0 mph 11.0 mph 81 % 0.00 in 218 W/m2
10:48 64.8 °F 58.8 °F 30.14 in East 5.0 mph 11.0 mph 81 % 0.00 in 257 W/m2
10:53 64.9 °F 58.6 °F 30.14 in East 4.0 mph 8.0 mph 80 % 0.00 in 250 W/m2
10:58 65.1 °F 59.1 °F 30.14 in East 3.0 mph 8.0 mph 81 % 0.00 in 227 W/m2
11:03 65.5 °F 59.1 °F 30.14 in East 3.0 mph 9.0 mph 80 % 0.00 in 250 W/m2
11:08 65.5 °F 58.8 °F 30.14 in East 4.0 mph 10.0 mph 79 % 0.00 in 369 W/m2
11:13 65.8 °F 58.8 °F 30.14 in East 5.0 mph 11.0 mph 78 % 0.00 in 299 W/m2
11:18 66.0 °F 59.0 °F 30.14 in East 6.0 mph 11.0 mph 78 % 0.00 in 304 W/m2
11:22 66.0 °F 59.0 °F 30.14 in East 6.0 mph 11.0 mph 78 % 0.00 in 292 W/m2
11:27 66.0 °F 58.6 °F 30.14 in East 5.0 mph 11.0 mph 77 % 0.00 in 313 W/m2
11:32 65.8 °F 58.8 °F 30.14 in East 6.0 mph 11.0 mph 78 % 0.00 in 225 W/m2
11:37 65.8 °F 58.8 °F 30.14 in East 6.0 mph 10.0 mph 78 % 0.00 in 315 W/m2
11:42 66.0 °F 59.0 °F 30.14 in East 5.0 mph 10.0 mph 78 % 0.00 in 387 W/m2
11:47 66.2 °F 59.1 °F 30.14 in East 5.0 mph 10.0 mph 78 % 0.00 in 360 W/m2
11:52 66.4 °F 58.9 °F 30.14 in East 4.0 mph 9.0 mph 77 % 0.00 in 355 W/m2
11:57 66.7 °F 59.3 °F 30.14 in East 4.0 mph 10.0 mph 77 % 0.00 in 287 W/m2
12:02 66.7 °F 58.9 °F 30.14 in East 5.0 mph 10.0 mph 76 % 0.00 in 251 W/m2
12:07 66.6 °F 59.1 °F 30.14 in East 5.0 mph 9.0 mph 77 % 0.00 in 285 W/m2
12:12 66.7 °F 59.3 °F 30.14 in East 4.0 mph 10.0 mph 77 % 0.00 in 341 W/m2
12:17 66.9 °F 59.5 °F 30.14 in ESE 5.0 mph 11.0 mph 77 % 0.00 in 410 W/m2
12:22 66.9 °F 59.1 °F 30.14 in East 6.0 mph 11.0 mph 76 % 0.00 in 431 W/m2
12:27 66.9 °F 59.1 °F 30.14 in East 6.0 mph 13.0 mph 76 % 0.00 in 381 W/m2
12:32 66.7 °F 58.9 °F 30.14 in East 7.0 mph 13.0 mph 76 % 0.00 in 297 W/m2
12:38 66.6 °F 59.1 °F 30.14 in East 6.0 mph 11.0 mph 77 % 0.00 in 304 W/m2
12:43 66.4 °F 58.9 °F 30.14 in East 5.0 mph 10.0 mph 77 % 0.00 in 394 W/m2
12:48 66.4 °F 58.9 °F 30.14 in East 5.0 mph 10.0 mph 77 % 0.00 in 250 W/m2
12:53 66.4 °F 58.9 °F 30.14 in ESE 6.0 mph 12.0 mph 77 % 0.00 in 211 W/m2
12:58 66.0 °F 59.0 °F 30.14 in East 6.0 mph 12.0 mph 78 % 0.00 in 234 W/m2
13:03 65.8 °F 58.8 °F 30.14 in East 4.0 mph 10.0 mph 78 % 0.00 in 200 W/m2
13:08 65.7 °F 59.0 °F 30.14 in East 5.0 mph 11.0 mph 79 % 0.00 in 260 W/m2
13:13 65.7 °F 59.0 °F 30.13 in East 5.0 mph 11.0 mph 79 % 0.00 in 278 W/m2
13:18 65.7 °F 59.0 °F 30.13 in East 5.0 mph 10.0 mph 79 % 0.00 in 269 W/m2
13:23 65.5 °F 58.8 °F 30.13 in ESE 6.0 mph 10.0 mph 79 % 0.00 in 163 W/m2
13:28 65.3 °F 59.0 °F 30.13 in East 6.0 mph 11.0 mph 80 % 0.00 in 156 W/m2
13:33 64.9 °F 59.0 °F 30.13 in ENE 6.0 mph 11.0 mph 81 % 0.00 in 163 W/m2
13:38 64.9 °F 59.0 °F 30.13 in ENE 4.0 mph 8.0 mph 81 % 0.00 in 163 W/m2
13:43 64.9 °F 59.0 °F 30.13 in ENE 5.0 mph 10.0 mph 81 % 0.00 in 183 W/m2
13:48 64.9 °F 59.0 °F 30.13 in ENE 5.0 mph 10.0 mph 81 % 0.00 in 227 W/m2
13:53 64.9 °F 59.0 °F 30.13 in ENE 5.0 mph 9.0 mph 81 % 0.00 in 199 W/m2
13:58 64.9 °F 59.0 °F 30.13 in ENE 5.0 mph 9.0 mph 81 % 0.00 in 172 W/m2
14:03 64.9 °F 59.0 °F 30.13 in ENE 5.0 mph 9.0 mph 81 % 0.00 in 178 W/m2
14:08 64.9 °F 59.0 °F 30.13 in East 5.0 mph 11.0 mph 81 % 0.00 in 216 W/m2
14:13 64.8 °F 58.8 °F 30.13 in East 5.0 mph 11.0 mph 81 % 0.00 in 197 W/m2
14:18 64.9 °F 59.0 °F 30.13 in ENE 5.0 mph 9.0 mph 81 % 0.00 in 155 W/m2
14:23 64.9 °F 59.0 °F 30.13 in ENE 5.0 mph 11.0 mph 81 % 0.00 in 162 W/m2
14:28 64.8 °F 58.8 °F 30.13 in ENE 5.0 mph 11.0 mph 81 % 0.00 in 179 W/m2
14:33 64.9 °F 59.0 °F 30.13 in East 5.0 mph 9.0 mph 81 % 0.00 in 162 W/m2
14:38 64.9 °F 59.3 °F 30.13 in East 4.0 mph 9.0 mph 82 % 0.00 in 163 W/m2
14:43 64.9 °F 59.3 °F 30.13 in ENE 5.0 mph 12.0 mph 82 % 0.00 in 153 W/m2
14:48 64.9 °F 59.3 °F 30.13 in ENE 6.0 mph 12.0 mph 82 % 0.00 in 167 W/m2
14:53 64.9 °F 59.3 °F 30.13 in ENE 5.0 mph 11.0 mph 82 % 0.00 in 169 W/m2
14:58 64.9 °F 59.3 °F 30.13 in ENE 4.0 mph 9.0 mph 82 % 0.00 in 169 W/m2
15:03 65.1 °F 59.1 °F 30.12 in East 3.0 mph 9.0 mph 81 % 0.00 in 181 W/m2
15:08 65.1 °F 59.1 °F 30.12 in ENE 5.0 mph 10.0 mph 81 % 0.00 in 190 W/m2
15:13 65.5 °F 59.1 °F 30.12 in ENE 5.0 mph 10.0 mph 80 % 0.00 in 216 W/m2
15:18 65.5 °F 59.1 °F 30.12 in East 5.0 mph 8.0 mph 80 % 0.00 in 197 W/m2
15:23 65.5 °F 59.1 °F 30.12 in East 5.0 mph 9.0 mph 80 % 0.00 in 156 W/m2
15:28 65.5 °F 59.1 °F 30.12 in ENE 5.0 mph 9.0 mph 80 % 0.00 in 188 W/m2
15:33 65.5 °F 59.1 °F 30.13 in East 5.0 mph 9.0 mph 80 % 0.00 in 186 W/m2
15:38 65.7 °F 59.3 °F 30.12 in East 4.0 mph 8.0 mph 80 % 0.00 in 165 W/m2
15:44 65.8 °F 59.5 °F 30.12 in ENE 3.0 mph 9.0 mph 80 % 0.00 in 148 W/m2
15:48 65.8 °F 59.5 °F 30.13 in East 3.0 mph 9.0 mph 80 % 0.00 in 162 W/m2
15:49 65.8 °F 59.5 °F 30.12 in East 3.0 mph 9.0 mph 80 % 0.00 in 162 W/m2
15:54 66.0 °F 59.3 °F 30.12 in East 4.0 mph 8.0 mph 79 % 0.00 in 186 W/m2
15:59 66.0 °F 59.3 °F 30.12 in East 4.0 mph 9.0 mph 79 % 0.00 in 158 W/m2
16:04 66.0 °F 59.3 °F 30.12 in ENE 4.0 mph 9.0 mph 79 % 0.00 in 167 W/m2
16:09 66.0 °F 59.3 °F 30.12 in East 3.0 mph 9.0 mph 79 % 0.00 in 185 W/m2
16:14 66.2 °F 59.5 °F 30.12 in ENE 3.0 mph 7.0 mph 79 % 0.00 in 162 W/m2
16:19 66.0 °F 59.3 °F 30.12 in ENE 4.0 mph 8.0 mph 79 % 0.00 in 183 W/m2
16:24 66.2 °F 59.5 °F 30.12 in ENE 4.0 mph 8.0 mph 79 % 0.00 in 199 W/m2
16:29 66.4 °F 59.7 °F 30.11 in ENE 4.0 mph 10.0 mph 79 % 0.00 in 188 W/m2
16:34 66.4 °F 59.3 °F 30.11 in East 4.0 mph 10.0 mph 78 % 0.00 in 179 W/m2
16:39 66.6 °F 59.5 °F 30.11 in East 4.0 mph 8.0 mph 78 % 0.00 in 172 W/m2
16:44 66.6 °F 59.5 °F 30.11 in East 4.0 mph 9.0 mph 78 % 0.00 in 172 W/m2
16:49 66.6 °F 59.5 °F 30.11 in East 5.0 mph 9.0 mph 78 % 0.00 in 149 W/m2
16:54 66.6 °F 59.5 °F 30.11 in ENE 4.0 mph 10.0 mph 78 % 0.00 in 153 W/m2
16:59 66.6 °F 59.5 °F 30.11 in ENE 4.0 mph 10.0 mph 78 % 0.00 in 132 W/m2
17:04 66.4 °F 59.3 °F 30.11 in East 4.0 mph 10.0 mph 78 % 0.00 in 135 W/m2
17:09 66.4 °F 59.3 °F 30.11 in East 4.0 mph 10.0 mph 78 % 0.00 in 113 W/m2
17:14 66.2 °F 59.5 °F 30.11 in ENE 5.0 mph 12.0 mph 79 % 0.00 in 116 W/m2
17:19 66.2 °F 59.5 °F 30.11 in ENE 5.0 mph 12.0 mph 79 % 0.00 in 125 W/m2
17:24 66.0 °F 59.3 °F 30.11 in ENE 5.0 mph 11.0 mph 79 % 0.00 in 113 W/m2
17:29 65.8 °F 59.1 °F 30.11 in East 6.0 mph 11.0 mph 79 % 0.00 in 95 W/m2
17:34 65.7 °F 59.0 °F 30.11 in ENE 6.0 mph 10.0 mph 79 % 0.00 in 102 W/m2
17:39 65.5 °F 59.1 °F 30.11 in ENE 5.0 mph 10.0 mph 80 % 0.00 in 102 W/m2
17:44 65.5 °F 59.1 °F 30.11 in ENE 5.0 mph 11.0 mph 80 % 0.00 in 100 W/m2
17:49 65.3 °F 59.0 °F 30.11 in ENE 6.0 mph 11.0 mph 80 % 0.00 in 102 W/m2
17:54 65.1 °F 58.8 °F 30.11 in ENE 6.0 mph 10.0 mph 80 % 0.00 in 95 W/m2
17:59 65.1 °F 58.8 °F 30.10 in ENE 5.0 mph 10.0 mph 80 % 0.00 in 104 W/m2
18:04 65.1 °F 58.8 °F 30.10 in ENE 5.0 mph 11.0 mph 80 % 0.00 in 88 W/m2
18:09 64.9 °F 59.0 °F 30.11 in ENE 6.0 mph 12.0 mph 81 % 0.00 in 84 W/m2
18:14 64.8 °F 58.8 °F 30.11 in ENE 6.0 mph 12.0 mph 81 % 0.00 in 84 W/m2
18:19 64.6 °F 58.6 °F 30.11 in ENE 6.0 mph 12.0 mph 81 % 0.00 in 77 W/m2
18:24 64.6 °F 58.6 °F 30.11 in ENE 6.0 mph 12.0 mph 81 % 0.00 in 77 W/m2
18:30 64.2 °F 58.6 °F 30.11 in East 5.0 mph 9.0 mph 82 % 0.00 in 58 W/m2
18:35 64.2 °F 58.6 °F 30.11 in East 4.0 mph 9.0 mph 82 % 0.00 in 56 W/m2
18:40 64.0 °F 58.4 °F 30.11 in ENE 4.0 mph 9.0 mph 82 % 0.00 in 62 W/m2
18:45 64.0 °F 58.4 °F 30.11 in ENE 5.0 mph 10.0 mph 82 % 0.00 in 72 W/m2
18:50 63.9 °F 58.3 °F 30.11 in ENE 5.0 mph 10.0 mph 82 % 0.00 in 62 W/m2
18:55 63.7 °F 58.4 °F 30.11 in ENE 5.0 mph 10.0 mph 83 % 0.00 in 51 W/m2
19:00 63.5 °F 58.2 °F 30.11 in ENE 4.0 mph 9.0 mph 83 % 0.00 in 49 W/m2
19:05 63.5 °F 58.2 °F 30.11 in East 4.0 mph 10.0 mph 83 % 0.00 in 49 W/m2
19:10 63.3 °F 58.1 °F 30.11 in East 4.0 mph 10.0 mph 83 % 0.00 in 51 W/m2
19:15 63.1 °F 58.2 °F 30.11 in East 5.0 mph 8.0 mph 84 % 0.00 in 51 W/m2
19:20 63.1 °F 58.2 °F 30.11 in East 5.0 mph 9.0 mph 84 % 0.00 in 40 W/m2
19:25 63.0 °F 58.0 °F 30.11 in ENE 5.0 mph 9.0 mph 84 % 0.00 in 37 W/m2
19:30 62.8 °F 57.9 °F 30.11 in ENE 6.0 mph 11.0 mph 84 % 0.00 in 33 W/m2
19:35 62.6 °F 57.7 °F 30.11 in ENE 5.0 mph 11.0 mph 84 % 0.00 in 35 W/m2
19:40 62.4 °F 57.8 °F 30.11 in East 4.0 mph 9.0 mph 85 % 0.00 in 37 W/m2
19:45 62.4 °F 57.8 °F 30.11 in East 4.0 mph 9.0 mph 85 % 0.00 in 33 W/m2
19:50 62.2 °F 57.7 °F 30.11 in ENE 4.0 mph 12.0 mph 85 % 0.00 in 25 W/m2
19:55 62.2 °F 57.7 °F 30.11 in ENE 5.0 mph 12.0 mph 85 % 0.00 in 23 W/m2
20:00 62.1 °F 57.5 °F 30.11 in ENE 4.0 mph 10.0 mph 85 % 0.00 in 21 W/m2
20:05 62.1 °F 57.8 °F 30.11 in ENE 3.0 mph 9.0 mph 86 % 0.00 in 18 W/m2
20:15 61.9 °F 57.6 °F 30.12 in ENE 4.0 mph 10.0 mph 86 % 0.00 in 14 W/m2
20:20 61.5 °F 57.3 °F 30.12 in ENE 6.0 mph 11.0 mph 86 % 0.00 in 12 W/m2
20:25 61.3 °F 57.1 °F 30.12 in ENE 6.0 mph 11.0 mph 86 % 0.00 in 12 W/m2
20:30 61.2 °F 57.3 °F 30.12 in ENE 6.0 mph 11.0 mph 87 % 0.00 in 12 W/m2
20:35 61.0 °F 57.1 °F 30.12 in ENE 6.0 mph 11.0 mph 87 % 0.00 in 12 W/m2
20:40 60.6 °F 57.0 °F 30.12 in ENE 6.0 mph 11.0 mph 88 % 0.00 in 12 W/m2
20:45 60.6 °F 57.0 °F 30.12 in ENE 5.0 mph 11.0 mph 88 % 0.00 in 11 W/m2
20:50 60.4 °F 56.9 °F 30.13 in ENE 5.0 mph 11.0 mph 88 % 0.00 in 11 W/m2
20:55 60.4 °F 56.9 °F 30.13 in ENE 4.0 mph 9.0 mph 88 % 0.00 in 11 W/m2
21:00 60.4 °F 56.9 °F 30.12 in ENE 5.0 mph 9.0 mph 88 % 0.00 in 9 W/m2
21:05 60.4 °F 57.2 °F 30.13 in ENE 5.0 mph 9.0 mph 89 % 0.00 in 7 W/m2
21:11 60.3 °F 57.0 °F 30.12 in East 4.0 mph 9.0 mph 89 % 0.00 in 7 W/m2
21:16 60.1 °F 56.8 °F 30.12 in ENE 5.0 mph 10.0 mph 89 % 0.00 in 5 W/m2
21:21 60.1 °F 56.8 °F 30.12 in ENE 5.0 mph 10.0 mph 89 % 0.00 in 0 W/m2
21:26 59.9 °F 56.6 °F 30.12 in ENE 5.0 mph 9.0 mph 89 % 0.00 in 0 W/m2
21:31 59.7 °F 56.5 °F 30.12 in ENE 5.0 mph 9.0 mph 89 % 0.00 in 0 W/m2
21:36 59.7 °F 56.5 °F 30.13 in ENE 4.0 mph 8.0 mph 89 % 0.00 in 0 W/m2
21:41 59.5 °F 56.3 °F 30.13 in ENE 4.0 mph 10.0 mph 89 % 0.00 in 0 W/m2
21:46 59.5 °F 56.3 °F 30.13 in ENE 5.0 mph 10.0 mph 89 % 0.00 in 0 W/m2
21:51 59.4 °F 56.1 °F 30.13 in ENE 5.0 mph 9.0 mph 89 % 0.00 in 0 W/m2
21:56 59.4 °F 56.1 °F 30.13 in ENE 5.0 mph 10.0 mph 89 % 0.00 in 0 W/m2
22:01 59.4 °F 56.4 °F 30.13 in ENE 5.0 mph 10.0 mph 90 % 0.00 in 0 W/m2
22:06 59.4 °F 56.4 °F 30.13 in ENE 4.0 mph 8.0 mph 90 % 0.00 in 0 W/m2
22:11 59.2 °F 56.2 °F 30.13 in East 4.0 mph 9.0 mph 90 % 0.00 in 0 W/m2
22:16 59.2 °F 56.2 °F 30.13 in East 4.0 mph 9.0 mph 90 % 0.00 in 0 W/m2
22:21 59.2 °F 56.2 °F 30.13 in East 3.0 mph 7.0 mph 90 % 0.00 in 0 W/m2
22:26 59.2 °F 56.2 °F 30.13 in East 3.0 mph 7.0 mph 90 % 0.00 in 0 W/m2
22:31 59.2 °F 56.2 °F 30.13 in ENE 3.0 mph 8.0 mph 90 % 0.00 in 0 W/m2
22:36 59.2 °F 56.2 °F 30.13 in ENE 4.0 mph 8.0 mph 90 % 0.00 in 0 W/m2
22:41 59.2 °F 56.2 °F 30.13 in ENE 4.0 mph 8.0 mph 90 % 0.00 in 0 W/m2
22:46 59.2 °F 56.2 °F 30.12 in ENE 3.0 mph 7.0 mph 90 % 0.00 in 0 W/m2
22:51 59.2 °F 56.2 °F 30.12 in ENE 3.0 mph 8.0 mph 90 % 0.00 in 0 W/m2
22:56 59.2 °F 56.2 °F 30.12 in ENE 3.0 mph 8.0 mph 90 % 0.00 in 0 W/m2
23:01 59.2 °F 56.2 °F 30.12 in East 2.0 mph 7.0 mph 90 % 0.00 in 0 W/m2
23:06 59.2 °F 56.2 °F 30.12 in East 2.0 mph 7.0 mph 90 % 0.00 in 0 W/m2
23:11 59.2 °F 56.2 °F 30.12 in East 2.0 mph 7.0 mph 90 % 0.00 in 0 W/m2
23:16 59.2 °F 55.9 °F 30.12 in East 3.0 mph 7.0 mph 89 % 0.00 in 0 W/m2
23:21 59.0 °F 55.8 °F 30.12 in East 3.0 mph 7.0 mph 89 % 0.00 in 0 W/m2
23:26 59.0 °F 55.8 °F 30.12 in East 2.0 mph 6.0 mph 89 % 0.00 in 0 W/m2
23:31 59.0 °F 56.1 °F 30.12 in East 2.0 mph 6.0 mph 90 % 0.00 in 0 W/m2
23:36 59.2 °F 55.9 °F 30.12 in East 2.0 mph 6.0 mph 89 % 0.00 in 0 W/m2
23:41 59.0 °F 55.8 °F 30.11 in East 2.0 mph 7.0 mph 89 % 0.00 in 0 W/m2
23:46 59.0 °F 55.8 °F 30.11 in East 2.0 mph 7.0 mph 89 % 0.00 in 0 W/m2
23:51 59.0 °F 55.8 °F 30.11 in East 2.0 mph 7.0 mph 89 % 0.00 in 0 W/m2
23:56 59.0 °F 55.8 °F 30.11 in ESE 3.0 mph 7.0 mph 89 % 0.00 in 0 W/m2
Delerius-Weather
Compliments of Weather Underground - 2.25 mb

Data updates at regular intervals.